Time;durP1;ratioP1;P1;durP2;ratioP2;P2;SDS_P1;SDS_P2;PMS_P1;PMS_P2;Temp;Humidity;BMP_temperature;BMP_pressure;BME280_temperature;BME280_humidity;BME280_pressure;Samples;Min_cycle;Max_cycle;Signal;HPM_P1;HPM_P2
2022/12/19 00:01:17;;;;;;;22.47;12.97;;;1.30;99.90;;;;;;4981988;28;20174;-74
2022/12/19 00:03:44;;;;;;;22.20;13.03;;;1.30;99.90;;;;;;4997674;28;20202;-74
2022/12/19 00:06:13;;;;;;;18.83;12.70;;;1.30;99.90;;;;;;4982918;28;20182;-75
2022/12/19 00:08:43;;;;;;;18.13;10.73;;;1.30;99.90;;;;;;4974492;28;20210;-74
2022/12/19 00:11:12;;;;;;;19.53;12.07;;;1.30;99.90;;;;;;4961881;28;20172;-75
2022/12/19 00:13:39;;;;;;;22.80;13.10;;;1.30;99.90;;;;;;4967926;28;20183;-75
2022/12/19 00:16:13;;;;;;;18.33;11.37;;;1.30;99.90;;;;;;4974919;28;20582;-73
2022/12/19 00:18:43;;;;;;;22.73;14.10;;;1.40;99.90;;;;;;4974784;28;20201;-75
2022/12/19 00:21:10;;;;;;;24.30;14.70;;;1.40;99.90;;;;;;4975648;28;20204;-74
2022/12/19 00:23:36;;;;;;;29.07;15.60;;;1.40;99.90;;;;;;4968539;28;20242;-75
2022/12/19 00:26:16;;;;;;;22.00;12.90;;;1.40;99.90;;;;;;4976609;28;20180;-75
2022/12/19 00:28:44;;;;;;;22.73;13.60;;;1.40;99.90;;;;;;4974955;28;20204;-75
2022/12/19 00:31:12;;;;;;;19.90;12.27;;;1.40;99.90;;;;;;4962409;28;20263;-76
2022/12/19 00:33:41;;;;;;;21.83;12.90;;;1.50;99.90;;;;;;4977320;28;20196;-74
2022/12/19 00:36:12;;;;;;;20.27;12.47;;;1.50;99.90;;;;;;4966043;28;20239;-75
2022/12/19 00:38:41;;;;;;;25.07;13.97;;;1.50;99.90;;;;;;4967745;28;20196;-75
2022/12/19 00:41:07;;;;;;;22.23;13.20;;;1.50;99.90;;;;;;4981968;28;20175;-76
2022/12/19 00:43:33;;;;;;;20.17;13.13;;;1.70;99.90;;;;;;4980911;28;20298;-75
2022/12/19 00:46:04;;;;;;;23.73;12.90;;;1.60;99.90;;;;;;4981070;28;20281;-76
2022/12/19 00:48:33;;;;;;;22.33;13.20;;;1.60;99.90;;;;;;4981093;28;20245;-76
2022/12/19 00:51:05;;;;;;;21.37;12.93;;;1.60;99.90;;;;;;4981222;28;20175;-75
2022/12/19 00:53:31;;;;;;;20.97;13.00;;;1.70;99.90;;;;;;4983501;28;20198;-76
2022/12/19 00:56:00;;;;;;;20.40;12.40;;;1.60;99.90;;;;;;4977940;28;20184;-75
2022/12/19 00:58:29;;;;;;;21.70;13.27;;;1.70;99.90;;;;;;4974072;28;20195;-74
2022/12/19 01:00:56;;;;;;;20.17;12.83;;;1.70;99.90;;;;;;4980932;28;20182;-74
2022/12/19 01:03:23;;;;;;;22.80;13.37;;;1.70;99.90;;;;;;4965589;28;20208;-75
2022/12/19 01:05:52;;;;;;;19.77;11.87;;;1.70;99.90;;;;;;4977780;28;20258;-75
2022/12/19 01:08:20;;;;;;;22.23;13.53;;;1.70;99.90;;;;;;4971276;28;20191;-75
2022/12/19 01:10:48;;;;;;;23.20;14.83;;;1.70;99.90;;;;;;4973563;28;20184;-74
2022/12/19 01:13:16;;;;;;;23.33;13.43;;;1.80;99.90;;;;;;4970610;28;20175;-75
2022/12/19 01:15:43;;;;;;;21.57;13.33;;;1.80;99.90;;;;;;4978503;28;20176;-75
2022/12/19 01:18:12;;;;;;;22.40;13.17;;;1.80;99.90;;;;;;4979997;28;20211;-74
2022/12/19 01:20:43;;;;;;;23.70;14.10;;;1.80;99.90;;;;;;4980445;28;20207;-74
2022/12/19 01:23:09;;;;;;;23.97;13.97;;;1.80;99.90;;;;;;4982631;28;20238;-74
2022/12/19 01:25:38;;;;;;;21.97;13.23;;;1.90;99.90;;;;;;4981149;28;20182;-75
2022/12/19 01:28:05;;;;;;;21.30;12.93;;;1.90;99.90;;;;;;4978426;28;20349;-74
2022/12/19 01:30:31;;;;;;;23.77;13.83;;;1.90;99.90;;;;;;4979459;28;20214;-74
2022/12/19 01:33:00;;;;;;;23.00;12.90;;;1.90;99.90;;;;;;4984860;28;20188;-74
2022/12/19 01:35:30;;;;;;;21.93;12.70;;;1.90;99.90;;;;;;4971173;28;20489;-75
2022/12/19 01:37:58;;;;;;;20.70;12.30;;;2.00;99.90;;;;;;4966862;28;20210;-75
2022/12/19 01:40:26;;;;;;;20.80;13.10;;;2.00;99.90;;;;;;4969548;28;20180;-75
2022/12/19 01:42:54;;;;;;;25.57;15.43;;;2.00;99.90;;;;;;4961763;28;20350;-75
2022/12/19 01:45:27;;;;;;;24.03;13.77;;;2.00;99.90;;;;;;4998765;28;20198;-74
2022/12/19 01:47:55;;;;;;;20.90;12.00;;;2.00;99.90;;;;;;4990900;28;20191;-73
2022/12/19 01:50:49;;;;;;;20.87;13.00;;;2.10;99.90;;;;;;4977896;28;20191;-74
2022/12/19 01:53:15;;;;;;;20.47;13.27;;;2.10;99.90;;;;;;4974071;28;20183;-74
2022/12/19 01:55:43;;;;;;;24.10;14.10;;;2.10;99.90;;;;;;4973892;28;20195;-74
2022/12/19 01:58:10;;;;;;;21.57;13.43;;;2.10;99.90;;;;;;4966249;28;20278;-73
2022/12/19 02:00:36;;;;;;;19.97;11.93;;;2.10;99.90;;;;;;4980345;28;20179;-74
2022/12/19 02:03:17;;;;;;;23.13;13.50;;;2.10;99.90;;;;;;4979506;28;20214;-75
2022/12/19 02:05:43;;;;;;;23.43;14.47;;;2.20;99.90;;;;;;4970579;28;20175;-73
2022/12/19 02:08:10;;;;;;;22.70;13.40;;;2.20;99.90;;;;;;4963561;28;20184;-74
2022/12/19 02:10:35;;;;;;;21.90;12.83;;;2.20;99.90;;;;;;4969819;28;20176;-72
2022/12/19 02:13:01;;;;;;;21.90;13.33;;;2.30;99.90;;;;;;4978635;28;20178;-74
2022/12/19 02:15:34;;;;;;;21.80;13.13;;;2.20;99.90;;;;;;4979480;28;20199;-74
2022/12/19 02:18:18;;;;;;;21.70;12.90;;;2.20;99.90;;;;;;4978793;28;20258;-72
2022/12/19 02:21:26;;;;;;;22.30;13.13;;;2.30;99.90;;;;;;4977249;28;20210;-74
2022/12/19 02:24:19;;;;;;;19.17;12.40;;;2.30;99.90;;;;;;4979346;28;20203;-75
2022/12/19 02:26:54;;;;;;;20.47;12.83;;;2.30;99.90;;;;;;4972314;28;20176;-73
2022/12/19 02:29:48;;;;;;;25.47;14.50;;;2.30;99.90;;;;;;4967693;28;20189;-74
2022/12/19 02:32:27;;;;;;;24.77;13.67;;;2.30;99.90;;;;;;4979420;28;20175;-73
2022/12/19 02:34:58;;;;;;;22.23;13.77;;;2.30;99.90;;;;;;4978561;28;20203;-74
2022/12/19 02:37:32;;;;;;;22.43;12.83;;;2.30;99.90;;;;;;4976224;28;20186;-74
2022/12/19 02:40:11;;;;;;;23.63;13.80;;;2.30;99.90;;;;;;4971511;28;20182;-73
2022/12/19 02:42:42;;;;;;;23.80;13.90;;;2.30;99.90;;;;;;4972038;28;20172;-72
2022/12/19 02:45:14;;;;;;;24.77;14.17;;;1.80;99.90;;;;;;4982822;28;20190;-74
2022/12/19 02:47:41;;;;;;;26.43;15.20;;;2.30;99.90;;;;;;4977296;28;20199;-72
2022/12/19 02:50:15;;;;;;;24.17;14.23;;;2.30;99.90;;;;;;4965398;28;20318;-72
2022/12/19 02:52:44;;;;;;;26.30;15.47;;;2.30;99.90;;;;;;4977672;28;20180;-74
2022/12/19 02:55:15;;;;;;;29.37;16.53;;;2.30;99.90;;;;;;4978974;28;20193;-74
2022/12/19 02:58:02;;;;;;;26.47;15.37;;;2.30;99.90;;;;;;4969430;28;20186;-73
2022/12/19 03:00:39;;;;;;;23.97;14.50;;;2.30;99.90;;;;;;4991610;28;20199;-73
2022/12/19 03:03:24;;;;;;;24.20;13.97;;;2.30;99.90;;;;;;4978633;28;20255;-74
2022/12/19 03:06:02;;;;;;;27.97;15.47;;;2.30;99.90;;;;;;4966367;28;20274;-73
2022/12/19 03:08:54;;;;;;;20.53;12.70;;;2.30;99.90;;;;;;4978408;28;20194;-74
2022/12/19 03:11:22;;;;;;;24.63;13.77;;;2.40;99.90;;;;;;4976206;28;20183;-74
2022/12/19 03:13:58;;;;;;;21.47;12.77;;;2.40;99.90;;;;;;4978184;28;20175;-74
2022/12/19 03:16:27;;;;;;;19.83;12.13;;;2.40;99.90;;;;;;4969581;28;20178;-73
2022/12/19 03:18:56;;;;;;;22.23;13.13;;;2.40;99.90;;;;;;4979861;28;20202;-74
2022/12/19 03:21:34;;;;;;;22.47;13.57;;;2.40;99.90;;;;;;4983540;28;20193;-73
2022/12/19 03:24:01;;;;;;;24.43;13.37;;;2.40;99.90;;;;;;4977806;28;20199;-73
2022/12/19 03:26:35;;;;;;;23.87;13.03;;;2.40;99.90;;;;;;4978269;28;20182;-73
2022/12/19 03:29:35;;;;;;;21.83;13.27;;;2.40;99.90;;;;;;4977119;28;20171;-73
2022/12/19 03:32:04;;;;;;;22.00;12.70;;;2.40;99.90;;;;;;4970893;28;20229;-74
2022/12/19 03:34:48;;;;;;;20.23;13.43;;;2.40;99.90;;;;;;4983723;28;20248;-74
2022/12/19 03:37:17;;;;;;;23.37;12.97;;;2.40;99.90;;;;;;4967451;28;20291;-73
2022/12/19 03:39:47;;;;;;;20.90;12.43;;;2.60;99.90;;;;;;4982088;28;20199;-74
2022/12/19 03:45:07;;;;;;;22.67;13.33;;;2.40;99.90;;;;;;4976135;28;20242;-75
2022/12/19 03:47:48;;;;;;;18.87;12.40;;;2.40;99.90;;;;;;4967727;28;20266;-73
2022/12/19 03:50:14;;;;;;;22.87;13.30;;;2.40;99.90;;;;;;4978100;28;20223;-74
2022/12/19 03:52:52;;;;;;;22.87;13.17;;;2.40;99.90;;;;;;4978116;28;20188;-73
2022/12/19 03:55:25;;;;;;;20.27;12.17;;;2.50;99.90;;;;;;4961994;28;20188;-74
2022/12/19 03:57:57;;;;;;;20.00;12.27;;;2.50;99.90;;;;;;4959075;28;20200;-74
2022/12/19 04:00:26;;;;;;;18.30;10.93;;;2.50;99.90;;;;;;4969300;28;20167;-73
2022/12/19 04:02:58;;;;;;;19.40;12.07;;;2.60;99.90;;;;;;4994934;28;20214;-74
2022/12/19 04:05:28;;;;;;;23.37;13.53;;;2.70;99.90;;;;;;4972494;28;20262;-74
2022/12/19 04:07:57;;;;;;;25.60;14.90;;;2.60;99.90;;;;;;4975139;28;20179;-75
2022/12/19 04:10:26;;;;;;;23.03;13.60;;;2.70;99.90;;;;;;4983882;28;20203;-71
2022/12/19 04:13:11;;;;;;;21.77;13.67;;;2.70;99.90;;;;;;4976219;28;20188;-74
2022/12/19 04:15:53;;;;;;;23.13;13.97;;;2.70;99.90;;;;;;4978382;28;20202;-75
2022/12/19 04:18:21;;;;;;;22.67;13.33;;;2.70;99.90;;;;;;4981542;28;20187;-75
2022/12/19 04:20:57;;;;;;;20.33;13.13;;;2.70;99.90;;;;;;4981801;28;20178;-73
2022/12/19 04:23:32;;;;;;;20.50;12.53;;;2.70;99.90;;;;;;4971374;28;20200;-74
2022/12/19 04:26:03;;;;;;;19.30;12.77;;;2.70;99.90;;;;;;4978423;28;20187;-77
2022/12/19 04:28:44;;;;;;;27.47;15.57;;;2.70;99.90;;;;;;4987445;28;20287;-75
2022/12/19 04:31:17;;;;;;;24.90;14.77;;;2.70;99.90;;;;;;4963644;28;20247;-84
2022/12/19 04:33:42;;;;;;;25.27;14.80;;;2.70;99.90;;;;;;4980776;28;20202;-78
2022/12/19 04:36:09;;;;;;;24.70;15.27;;;2.70;99.90;;;;;;4981817;28;20183;-79
2022/12/19 04:38:35;;;;;;;26.03;15.50;;;2.70;99.90;;;;;;4967264;28;20183;-80
2022/12/19 04:41:01;;;;;;;23.27;14.10;;;2.80;99.90;;;;;;4981297;28;20285;-80
2022/12/19 04:43:33;;;;;;;24.37;13.70;;;2.70;99.90;;;;;;4972745;28;20291;-78
2022/12/19 04:45:59;;;;;;;20.27;13.00;;;2.80;99.90;;;;;;4973889;28;20275;-79
2022/12/19 04:48:25;;;;;;;22.97;13.73;;;3.00;99.90;;;;;;4966534;28;20252;-81
2022/12/19 04:50:51;;;;;;;23.77;13.73;;;2.80;99.90;;;;;;4976658;28;20167;-81
2022/12/19 04:53:21;;;;;;;21.83;12.83;;;2.80;99.90;;;;;;4977120;28;20286;-80
2022/12/19 04:55:47;;;;;;;21.40;12.80;;;2.80;99.90;;;;;;4972789;28;20184;-80
2022/12/19 04:58:12;;;;;;;23.93;14.03;;;2.80;99.90;;;;;;4986711;28;20175;-78
2022/12/19 05:00:43;;;;;;;23.90;14.23;;;2.80;99.90;;;;;;4994284;28;20423;-79
2022/12/19 05:03:08;;;;;;;23.43;14.13;;;2.80;99.90;;;;;;5000881;28;20440;-80
2022/12/19 05:05:36;;;;;;;26.83;16.03;;;2.90;99.90;;;;;;4981103;28;20227;-79
2022/12/19 05:08:04;;;;;;;24.13;14.43;;;2.90;99.90;;;;;;4973995;28;20298;-80
2022/12/19 05:10:30;;;;;;;21.50;14.13;;;3.00;99.90;;;;;;4975049;28;20282;-79
2022/12/19 05:12:55;;;;;;;20.97;12.97;;;2.90;99.90;;;;;;4969204;28;20219;-78
2022/12/19 05:15:21;;;;;;;23.17;13.87;;;2.90;99.90;;;;;;4988255;28;20187;-80
2022/12/19 05:17:46;;;;;;;23.53;14.80;;;3.00;99.90;;;;;;4981345;28;20200;-77
2022/12/19 05:20:12;;;;;;;22.40;13.40;;;2.90;99.90;;;;;;4967753;28;20191;-80
2022/12/19 05:22:40;;;;;;;21.47;13.10;;;2.90;99.90;;;;;;4972867;28;20207;-78
2022/12/19 05:25:06;;;;;;;22.33;13.13;;;3.00;99.90;;;;;;4973126;28;20164;-79
2022/12/19 05:27:34;;;;;;;20.23;13.03;;;3.00;99.90;;;;;;4979849;28;20298;-78
2022/12/19 05:30:00;;;;;;;19.63;12.93;;;3.00;99.90;;;;;;4970539;28;20183;-79
2022/12/19 05:32:30;;;;;;;22.87;14.00;;;3.10;99.90;;;;;;4980225;28;20186;-78
2022/12/19 05:34:56;;;;;;;22.07;13.47;;;3.10;99.90;;;;;;4979603;28;20255;-78
2022/12/19 05:37:24;;;;;;;22.57;13.10;;;3.10;99.90;;;;;;4979775;28;20266;-78
2022/12/19 05:39:52;;;;;;;27.57;14.93;;;3.10;99.90;;;;;;4970771;28;20203;-80
2022/12/19 05:42:17;;;;;;;21.80;13.77;;;3.10;99.90;;;;;;4971745;28;20178;-78
2022/12/19 05:44:45;;;;;;;21.03;13.20;;;3.10;99.90;;;;;;4979112;28;20282;-78
2022/12/19 05:47:13;;;;;;;21.80;13.70;;;3.40;99.90;;;;;;4977400;28;20283;-78
2022/12/19 05:49:39;;;;;;;22.83;14.00;;;3.20;99.90;;;;;;4974096;28;20204;-77
2022/12/19 05:52:10;;;;;;;21.33;12.87;;;3.40;99.90;;;;;;4967813;28;20178;-76
2022/12/19 05:54:38;;;;;;;26.43;14.93;;;3.30;99.90;;;;;;4980045;28;20175;-78
2022/12/19 05:57:03;;;;;;;23.53;13.40;;;3.30;99.90;;;;;;4979893;28;20182;-78
2022/12/19 05:59:33;;;;;;;23.17;14.23;;;3.30;99.90;;;;;;4991678;28;20179;-78
2022/12/19 06:01:59;;;;;;;19.23;12.70;;;3.30;99.90;;;;;;4980532;28;20199;-77
2022/12/19 06:04:27;;;;;;;22.43;13.83;;;3.40;99.90;;;;;;4974565;28;20264;-76
2022/12/19 06:06:53;;;;;;;21.30;13.73;;;3.30;99.90;;;;;;4981064;28;20202;-79
2022/12/19 06:09:19;;;;;;;20.53;12.70;;;3.40;99.90;;;;;;4979394;28;20176;-77
2022/12/19 06:11:45;;;;;;;18.20;12.23;;;3.50;99.90;;;;;;4979994;28;20171;-79
2022/12/19 06:14:12;;;;;;;21.10;12.90;;;3.50;99.90;;;;;;4980414;28;20289;-76
2022/12/19 06:16:37;;;;;;;20.33;12.77;;;3.50;99.90;;;;;;4974151;28;20188;-81
2022/12/19 06:19:03;;;;;;;22.10;13.70;;;3.80;99.90;;;;;;4960909;28;20180;-80
2022/12/19 06:21:28;;;;;;;21.27;13.17;;;3.60;99.90;;;;;;4975981;28;20204;-78
2022/12/19 06:23:55;;;;;;;18.20;12.33;;;3.70;99.90;;;;;;4979587;28;20206;-80
2022/12/19 06:26:23;;;;;;;18.87;12.43;;;3.70;99.90;;;;;;4979737;28;20242;-77
2022/12/19 06:28:50;;;;;;;22.57;13.73;;;3.80;99.90;;;;;;4965550;28;20191;-76
2022/12/19 06:31:18;;;;;;;18.50;11.83;;;3.90;99.90;;;;;;4979264;28;20238;-77
2022/12/19 06:33:44;;;;;;;19.90;12.47;;;4.00;99.90;;;;;;4978803;28;20262;-77
2022/12/19 06:36:12;;;;;;;19.83;12.17;;;3.90;99.90;;;;;;4971229;28;20217;-77
2022/12/19 06:38:40;;;;;;;20.00;12.20;;;3.90;99.90;;;;;;4991846;28;20179;-77
2022/12/19 06:43:51;;;;;;;21.07;12.83;;;4.00;99.90;;;;;;4989037;28;20215;-75
2022/12/19 06:46:16;;;;;;;19.10;12.07;;;4.00;99.90;;;;;;4994810;28;20187;-77
2022/12/19 06:48:42;;;;;;;18.23;11.70;;;4.00;99.90;;;;;;4979235;28;20199;-80
2022/12/19 06:51:08;;;;;;;18.77;11.70;;;4.00;99.90;;;;;;4979129;28;20180;-79
2022/12/19 06:53:33;;;;;;;20.60;13.10;;;4.00;99.90;;;;;;4978958;28;20182;-82
2022/12/19 06:55:59;;;;;;;20.27;12.67;;;4.10;99.90;;;;;;4978743;28;20345;-76
2022/12/19 06:58:28;;;;;;;20.63;12.83;;;4.20;99.90;;;;;;4965486;28;20192;-76
2022/12/19 07:00:57;;;;;;;20.27;12.73;;;4.10;99.90;;;;;;4965232;28;20271;-79
2022/12/19 07:03:31;;;;;;;18.73;12.10;;;4.10;99.90;;;;;;4972136;28;20349;-77
2022/12/19 07:05:59;;;;;;;22.67;13.00;;;4.20;99.90;;;;;;4977299;28;20183;-76
2022/12/19 07:08:30;;;;;;;20.50;12.40;;;4.20;99.90;;;;;;4978750;28;20171;-77
2022/12/19 07:10:58;;;;;;;19.73;12.23;;;4.20;99.90;;;;;;4977909;28;20214;-78
2022/12/19 07:13:24;;;;;;;19.73;12.27;;;4.20;99.90;;;;;;4970091;28;20241;-77
2022/12/19 07:15:51;;;;;;;19.37;11.93;;;4.20;99.90;;;;;;4972141;28;20207;-78
2022/12/19 07:18:17;;;;;;;22.33;13.80;;;4.20;99.90;;;;;;4975562;28;20198;-77
2022/12/19 07:20:46;;;;;;;19.27;12.70;;;4.20;99.90;;;;;;4972043;28;20237;-78
2022/12/19 07:23:16;;;;;;;19.33;12.30;;;4.20;99.90;;;;;;4977106;28;20218;-77
2022/12/19 07:25:45;;;;;;;21.10;12.70;;;4.10;99.90;;;;;;4959596;28;20202;-77
2022/12/19 07:28:13;;;;;;;17.90;12.00;;;4.10;99.90;;;;;;4977151;28;20172;-77
2022/12/19 07:30:39;;;;;;;21.93;13.17;;;4.20;99.90;;;;;;4974116;28;20184;-76
2022/12/19 07:33:07;;;;;;;20.67;13.27;;;4.20;99.90;;;;;;4977440;28;20238;-79
2022/12/19 07:35:36;;;;;;;20.20;12.93;;;4.20;99.90;;;;;;4972159;28;20200;-81
2022/12/19 07:38:03;;;;;;;21.73;13.10;;;4.20;99.90;;;;;;4975053;28;20207;-77
2022/12/19 07:40:32;;;;;;;21.00;13.13;;;4.20;99.90;;;;;;4980529;28;20483;-78
2022/12/19 07:43:02;;;;;;;21.23;12.33;;;4.20;99.90;;;;;;4971977;28;20219;-77
2022/12/19 07:45:33;;;;;;;23.23;13.50;;;4.20;99.90;;;;;;4975844;28;20191;-78
2022/12/19 07:48:05;;;;;;;20.93;13.07;;;4.20;99.90;;;;;;4977044;28;20160;-77
2022/12/19 07:50:33;;;;;;;17.80;12.37;;;4.20;99.90;;;;;;4975095;28;20172;-77
2022/12/19 07:52:59;;;;;;;22.67;13.70;;;4.30;99.90;;;;;;4971622;28;20187;-75
2022/12/19 07:55:26;;;;;;;20.63;13.00;;;4.30;99.90;;;;;;4974127;28;20187;-77
2022/12/19 07:57:54;;;;;;;19.07;12.50;;;4.30;99.90;;;;;;4959345;28;20268;-78
2022/12/19 08:00:20;;;;;;;20.87;12.70;;;4.30;99.90;;;;;;4966606;28;20289;-76
2022/12/19 08:02:48;;;;;;;24.63;14.57;;;4.30;99.90;;;;;;4971318;28;20205;-79
2022/12/19 08:05:16;;;;;;;20.30;13.30;;;4.40;99.90;;;;;;4972227;28;20266;-80
2022/12/19 08:07:44;;;;;;;20.97;12.80;;;4.40;99.90;;;;;;4969842;28;20179;-79
2022/12/19 08:10:18;;;;;;;21.13;13.50;;;4.40;99.90;;;;;;4966689;28;20199;-81
2022/12/19 08:12:44;;;;;;;19.60;13.30;;;4.40;99.90;;;;;;4976990;28;20186;-80
2022/12/19 08:15:12;;;;;;;23.07;14.70;;;4.50;99.90;;;;;;4965239;28;20180;-83
2022/12/19 08:17:40;;;;;;;20.00;12.67;;;4.40;99.90;;;;;;4971943;28;20179;-81
2022/12/19 08:20:07;;;;;;;21.17;13.70;;;4.40;99.90;;;;;;4963860;28;20210;-79
2022/12/19 08:22:35;;;;;;;21.33;12.37;;;4.40;99.90;;;;;;4977183;28;20179;-82
2022/12/19 08:25:01;;;;;;;21.77;13.17;;;4.40;99.90;;;;;;4974865;28;20203;-81
2022/12/19 08:27:28;;;;;;;21.27;13.73;;;4.40;99.90;;;;;;4970721;28;20294;-83
2022/12/19 08:29:54;;;;;;;20.77;12.07;;;4.50;99.90;;;;;;4965951;28;20225;-81
2022/12/19 08:32:23;;;;;;;20.00;12.60;;;4.50;99.90;;;;;;4980199;28;20254;-82
2022/12/19 08:34:49;;;;;;;18.23;11.80;;;4.50;99.90;;;;;;4972352;28;20272;-79
2022/12/19 08:37:15;;;;;;;20.90;13.50;;;4.50;99.90;;;;;;4976462;28;20289;-80
2022/12/19 08:39:40;;;;;;;20.23;13.37;;;4.60;99.90;;;;;;4973731;28;20245;-81
2022/12/19 08:42:06;;;;;;;20.60;13.23;;;4.50;99.90;;;;;;4965296;28;20187;-82
2022/12/19 08:44:34;;;;;;;20.73;12.37;;;4.50;99.90;;;;;;4974321;28;20195;-81
2022/12/19 08:47:02;;;;;;;20.97;12.50;;;4.60;99.90;;;;;;4967861;28;20172;-80
2022/12/19 08:49:27;;;;;;;19.53;12.63;;;4.60;99.90;;;;;;4977071;28;20184;-79
2022/12/19 08:51:55;;;;;;;19.10;12.20;;;4.60;99.90;;;;;;4967811;28;20267;-79
2022/12/19 08:54:21;;;;;;;18.27;12.03;;;4.60;99.90;;;;;;4960804;28;20299;-81
2022/12/19 08:56:47;;;;;;;23.13;13.63;;;4.60;99.90;;;;;;4976621;28;20203;-80
2022/12/19 08:59:17;;;;;;;19.50;12.57;;;4.70;99.90;;;;;;4969989;28;20206;-79
2022/12/19 09:01:45;;;;;;;19.90;12.80;;;4.70;99.90;;;;;;4979563;28;20199;-80
2022/12/19 09:04:16;;;;;;;24.07;14.40;;;4.70;99.90;;;;;;4977053;28;20203;-79
2022/12/19 09:06:44;;;;;;;20.07;13.33;;;4.70;99.90;;;;;;4986752;28;20206;-80
2022/12/19 09:09:09;;;;;;;21.23;13.13;;;4.70;99.90;;;;;;4977582;28;20187;-80
2022/12/19 09:11:37;;;;;;;19.40;12.40;;;4.80;99.90;;;;;;4963814;28;20173;-78
2022/12/19 09:14:06;;;;;;;16.03;10.90;;;4.80;99.90;;;;;;4973522;28;20266;-79
2022/12/19 09:16:31;;;;;;;22.60;12.90;;;4.80;99.90;;;;;;4979194;28;20194;-78
2022/12/19 09:18:57;;;;;;;22.03;13.40;;;4.90;99.90;;;;;;4980597;28;20203;-78
2022/12/19 09:21:28;;;;;;;19.60;12.10;;;4.80;99.90;;;;;;4979489;28;20190;-79
2022/12/19 09:23:57;;;;;;;20.30;13.30;;;4.90;99.90;;;;;;4978231;28;20206;-80
2022/12/19 09:26:25;;;;;;;22.07;13.23;;;4.90;99.90;;;;;;4978296;28;20218;-80
2022/12/19 09:28:51;;;;;;;19.93;12.33;;;5.00;99.90;;;;;;4979657;28;20198;-78
2022/12/19 09:31:22;;;;;;;18.93;11.90;;;5.00;99.90;;;;;;4980586;28;20175;-78
2022/12/19 09:33:50;;;;;;;20.23;12.17;;;5.00;99.90;;;;;;4979189;28;20195;-80
2022/12/19 09:36:22;;;;;;;19.23;11.93;;;5.10;99.90;;;;;;4976650;28;20172;-82
2022/12/19 09:38:48;;;;;;;19.07;11.73;;;5.10;99.90;;;;;;4980696;28;20275;-79
2022/12/19 09:42:12;;;;;;;20.87;11.67;;;5.20;99.90;;;;;;4980105;28;20230;-78
2022/12/19 09:44:49;;;;;;;19.07;12.33;;;5.20;99.90;;;;;;4883931;29;20301;-80
2022/12/19 09:47:22;;;;;;;17.60;11.67;;;5.30;99.90;;;;;;4881806;29;20183;-79
2022/12/19 09:49:47;;;;;;;18.40;11.23;;;5.20;99.90;;;;;;4929948;28;20287;-79
2022/12/19 09:52:36;;;;;;;18.43;11.60;;;5.50;99.90;;;;;;4991679;28;20518;-79
2022/12/19 09:55:16;;;;;;;18.70;11.77;;;5.30;99.90;;;;;;4976926;28;20184;-79
2022/12/19 09:57:54;;;;;;;20.50;12.07;;;5.40;99.90;;;;;;4979697;28;20171;-78
2022/12/19 10:00:21;;;;;;;19.10;12.63;;;5.40;99.90;;;;;;4978277;28;20179;-81
2022/12/19 10:03:09;;;;;;;19.37;12.30;;;5.50;99.90;;;;;;4979929;28;20199;-80
2022/12/19 10:05:50;;;;;;;19.17;12.83;;;5.50;99.90;;;;;;4979518;28;20234;-80
2022/12/19 10:08:32;;;;;;;17.33;11.27;;;5.50;99.90;;;;;;4964779;28;20232;-75
2022/12/19 10:11:26;;;;;;;20.13;12.37;;;5.50;99.90;;;;;;4978802;28;20182;-76
2022/12/19 10:14:13;;;;;;;19.23;12.67;;;5.60;99.90;;;;;;4960430;28;20184;-76
2022/12/19 10:17:10;;;;;;;16.07;10.50;;;5.60;99.90;;;;;;4975299;28;20278;-77
2022/12/19 10:19:56;;;;;;;14.90;10.80;;;5.70;99.90;;;;;;4976466;28;20274;-77
2022/12/19 10:23:00;;;;;;;19.33;12.10;;;5.70;99.90;;;;;;4973528;28;20206;-81
2022/12/19 10:25:46;;;;;;;15.97;10.10;;;5.80;99.90;;;;;;4922894;29;20185;-79
2022/12/19 10:28:48;;;;;;;17.17;11.53;;;5.90;99.90;;;;;;4902094;29;20260;-80
2022/12/19 10:31:38;;;;;;;16.10;11.03;;;5.90;99.90;;;;;;4951776;28;20366;-80
2022/12/19 10:34:23;;;;;;;18.80;12.10;;;5.90;99.90;;;;;;4965344;28;20217;-79
2022/12/19 10:36:56;;;;;;;20.70;13.23;;;6.00;99.90;;;;;;4977994;28;20206;-80
2022/12/19 10:39:45;;;;;;;17.73;11.90;;;6.10;99.90;;;;;;4976684;28;20207;-79
2022/12/19 10:42:44;;;;;;;17.20;12.00;;;6.00;99.90;;;;;;4976975;28;20180;-79
2022/12/19 10:45:20;;;;;;;17.17;10.00;;;6.10;99.90;;;;;;4981165;28;20179;-78
2022/12/19 10:47:51;;;;;;;15.40;10.80;;;6.10;99.90;;;;;;4977354;28;20266;-77
2022/12/19 10:50:22;;;;;;;17.10;11.37;;;6.10;99.90;;;;;;4967369;28;20176;-79
2022/12/19 10:53:03;;;;;;;16.33;10.80;;;6.10;99.90;;;;;;4979280;28;20178;-79
2022/12/19 10:55:41;;;;;;;15.97;10.87;;;6.20;99.90;;;;;;4978881;28;20217;-79
2022/12/19 10:58:28;;;;;;;15.47;10.63;;;6.30;99.90;;;;;;4979199;28;20246;-80
2022/12/19 11:01:02;;;;;;;17.07;11.10;;;6.20;99.90;;;;;;4979164;28;20179;-79
2022/12/19 11:03:28;;;;;;;17.03;10.90;;;6.30;99.90;;;;;;4978713;28;20309;-77
2022/12/19 11:05:56;;;;;;;16.33;10.90;;;6.40;99.90;;;;;;4971228;28;20258;-76
2022/12/19 11:08:33;;;;;;;20.03;12.80;;;6.30;99.90;;;;;;4972965;28;20190;-78
2022/12/19 11:11:05;;;;;;;19.17;11.83;;;6.40;99.90;;;;;;4978491;28;20175;-76
2022/12/19 11:13:37;;;;;;;16.10;10.93;;;6.40;99.90;;;;;;4978724;28;20263;-76
2022/12/19 11:16:06;;;;;;;15.30;10.80;;;6.40;99.90;;;;;;4978302;28;20187;-77
2022/12/19 11:18:35;;;;;;;15.67;10.67;;;6.40;99.90;;;;;;4978385;28;20234;-79
2022/12/19 11:21:16;;;;;;;16.43;10.50;;;6.40;99.90;;;;;;4975171;28;20186;-79
2022/12/19 11:23:58;;;;;;;16.17;11.07;;;6.50;99.90;;;;;;4959189;28;20258;-80
2022/12/19 11:26:51;;;;;;;16.57;10.90;;;6.50;99.90;;;;;;4974796;28;20316;-78
2022/12/19 11:29:23;;;;;;;15.93;10.63;;;6.50;99.90;;;;;;4970951;28;20447;-78
2022/12/19 11:31:58;;;;;;;17.43;10.93;;;6.50;99.90;;;;;;4959430;28;20160;-79
2022/12/19 11:34:26;;;;;;;15.67;10.03;;;6.50;99.90;;;;;;4975618;28;20203;-78
2022/12/19 11:36:59;;;;;;;15.93;10.70;;;6.50;99.90;;;;;;4980743;28;20296;-78
2022/12/19 11:39:43;;;;;;;15.03;10.67;;;6.50;99.90;;;;;;4959018;28;20180;-77
2022/12/19 11:42:30;;;;;;;14.83;9.43;;;6.50;99.90;;;;;;4960947;28;20291;-78
2022/12/19 11:45:34;;;;;;;14.57;9.80;;;6.60;99.90;;;;;;4984452;28;20289;-78
2022/12/19 11:48:15;;;;;;;13.97;9.77;;;6.60;99.90;;;;;;4981103;28;20174;-79
2022/12/19 11:50:57;;;;;;;15.90;10.07;;;6.60;99.90;;;;;;4972452;28;20171;-77
2022/12/19 11:53:32;;;;;;;14.67;9.57;;;6.60;99.90;;;;;;4973406;28;20266;-78
2022/12/19 11:56:03;;;;;;;15.00;10.17;;;6.60;99.90;;;;;;4968944;28;20173;-81
2022/12/19 11:58:29;;;;;;;13.30;9.27;;;6.60;99.90;;;;;;4978544;28;20175;-77
2022/12/19 12:01:08;;;;;;;14.70;9.23;;;6.70;99.90;;;;;;4978176;28;20221;-78
2022/12/19 12:03:53;;;;;;;17.23;10.20;;;6.70;99.90;;;;;;4970732;28;20215;-78
2022/12/19 12:06:20;;;;;;;15.63;10.10;;;6.80;99.90;;;;;;5007416;28;20172;-75
2022/12/19 12:08:59;;;;;;;15.27;10.17;;;6.80;99.90;;;;;;5007047;28;20183;-78
2022/12/19 12:11:30;;;;;;;13.87;10.10;;;6.80;99.90;;;;;;4992861;28;20274;-77
2022/12/19 12:14:16;;;;;;;17.13;10.70;;;6.90;99.90;;;;;;4974554;28;20176;-77
2022/12/19 12:16:51;;;;;;;20.00;12.20;;;6.90;99.90;;;;;;4973525;28;20182;-77
2022/12/19 12:19:30;;;;;;;15.83;11.03;;;6.90;99.90;;;;;;4973050;28;20186;-76
2022/12/19 12:22:10;;;;;;;16.93;11.27;;;6.90;99.90;;;;;;4977348;28;20182;-78
2022/12/19 12:25:02;;;;;;;17.27;11.67;;;6.90;99.90;;;;;;4977452;28;20203;-79
2022/12/19 12:28:03;;;;;;;15.73;11.30;;;7.00;99.90;;;;;;4964885;28;20222;-79
2022/12/19 12:30:49;;;;;;;18.17;11.20;;;7.00;99.90;;;;;;4961921;28;20191;-78
2022/12/19 12:33:28;;;;;;;18.17;11.57;;;7.00;99.90;;;;;;4980012;28;20182;-79
2022/12/19 12:36:07;;;;;;;19.17;11.87;;;7.00;99.90;;;;;;4976027;28;20184;-81
2022/12/19 12:38:57;;;;;;;16.90;11.47;;;7.00;99.90;;;;;;4971870;28;20273;-80
2022/12/19 12:42:04;;;;;;;14.60;9.77;;;7.00;99.90;;;;;;4977974;28;20188;-80
2022/12/19 12:44:36;;;;;;;13.70;9.40;;;7.00;99.90;;;;;;4953452;28;20214;-81
2022/12/19 12:47:24;;;;;;;13.07;9.00;;;7.00;99.90;;;;;;4962172;28;20172;-81
2022/12/19 12:49:57;;;;;;;13.33;9.60;;;7.00;99.90;;;;;;4975174;28;20265;-81
2022/12/19 12:52:32;;;;;;;13.93;9.30;;;7.10;99.90;;;;;;4977865;28;20217;-80
2022/12/19 12:54:58;;;;;;;14.97;9.37;;;7.20;99.90;;;;;;4979159;28;20186;-78
2022/12/19 12:57:27;;;;;;;13.90;9.60;;;7.10;99.90;;;;;;4976169;28;20175;-76
2022/12/19 13:00:23;;;;;;;14.50;8.80;;;7.30;99.90;;;;;;4979874;28;20175;-77
2022/12/19 13:02:58;;;;;;;14.00;9.13;;;7.20;99.90;;;;;;4975275;28;20191;-78
2022/12/19 13:05:42;;;;;;;13.23;9.33;;;7.30;99.90;;;;;;4980857;28;20179;-77
2022/12/19 13:08:39;;;;;;;13.80;9.13;;;7.30;99.90;;;;;;4978100;28;20171;-78
2022/12/19 13:14:01;;;;;;;13.77;9.20;;;7.30;99.90;;;;;;4991810;28;20222;-78